Terminal Aerodrome Forecast
Issued by NWS Mt. Holly, NJ

Home | Current Version | Previous Version | Text Only | Print | Product List | Glossary On
Versions: 1 2 3 4 5 6 7 8 9 10 11 12 13 14 15 16 17 18 19 20 21 22
289
FTUS41 KPHI 281730
TAFILG
TAF
KILG 281730Z 2818/2918 24012KT P6SM FEW060
     FM282300 20006KT P6SM BKN200
     FM290500 16006KT P6SM BKN080
     FM290800 20009KT P6SM BKN035 PROB30 2909/2913 4SM -SHRA OVC020
     FM291400 25012KT P6SM BKN200=

USA.gov is the U.S. government's official web portal to all federal, state and local government web resources and services.